Aérodrome :
LOGIN :

S'inscrire | Disclaimer

   EN    FR    IT 

 










Légende :    VFR   VFR Marginal   IFR   IFR Intensif   IFR Très Intensif
Visi : 
Plafond : 
>= 8 km
>= 3000ft
5 à 8 km
1000 à 3000 ft
1500m à 5 km
500 à 1000 ft
800 à 1500m
200 à 500 ft
< 800m
< 200 ft
Symboles :   Orages  Brouillard  Fortes neiges  Fortes précipitations  Vent > 20 kt
SIGMETs :   Divers  Orages  Givrage  Turbulence  Onde Orograph.  Cendres Volcan.






- Altitude de l'aérodrome : 1789 ft
- Code IATA : PRN


BKPR - Pristina

DERNIER METAR :
  • 082030Z VRB02KT 0300 R17/0750V1100 FG BKN003 03/02 Q1019 NOSIG RMK 17190095

METARs EXPIRÉS :
  • 082000Z VRB03KT 0200 R17/0800V1200 FG BKN002 03/02 Q1019 NOSIG RMK 17190095
  • 081930Z VRB01KT 0200 R17/0800 FG BKN002 04/02 Q1019 NOSIG RMK 17190095
  • 081900Z VRB01KT 0250 R17/0650 FG BKN002 04/02 Q1019 NOSIG RMK 17190095
  • 081830Z VRB02KT 0200 R17/0400 FG BKN002 04/02 Q1020 NOSIG RMK 17190095

TAF TAF BKPR
Valide du 08 à 18h jusqu'au 09 à 18h UTC


081730Z 0818/0918 VRB03KT 0150 FG BKN002
TEMPO 0818/0819 0250 BKN004
BECMG 0909/0911 4000 BR BKN010
BECMG 0912/0914 8000 NSW SCT060



MET'MAP, la Météo Aéronautique d'un coup d'oeil ! - Copyright ORBIFLY Décembre 2007 - Disclaimer

ORBIFLY MET'MAP TEAM :

Programmation & Développement : Alexandra Zaïnal
Sur une idée originale de : Baudouin d'Aumeries
Assistance à la programmation : Marc-Olivier Méhu
Soutien technique & logistique : Manuel Goepfert

Contact : metmap@orbifly.com




SOURCES & CREDITS :

   NOAA